Pittsburgh, Pennsylvania
Traffic Map
Current Weather Conditions
Pittsburgh, Pennsylvania
Clear
Clear
31°
Feels Like: 25°
Wind Chill: 25° Ceiling: Unl
Heat Index: 31° Visibility: 10mi
Dew Point: 16° Wind: 6mph
Humidity: 54% Direction: 210° (SSW)
Pressure: 30.33in Gusts: 0mph
Raw Report DataKAGC 060253Z 21005KT 10SM CLR M01/M09 A3033 RMK AO2 SLP289 T10061089 58010
Traffic Incident Summary
Active as of:
Severity:
Category:
InformationThere was an issue retrieving the traffic information for this location. Please try a different location or try again shortly.
Advertisements
Track Severe Weather on mobile